Time;durP1;ratioP1;P1;durP2;ratioP2;P2;SDS_P1;SDS_P2;PMS_P1;PMS_P2;Temp;Humidity;BMP_temperature;BMP_pressure;BME280_temperature;BME280_humidity;BME280_pressure;Samples;Min_cycle;Max_cycle;Signal;HPM_P1;HPM_P2
2023/09/19 00:01:40;;;;;;;1.77;1.20;;;;;;;16.93;100.00;97755.09;6111618;19;20015;-74
2023/09/19 00:03:41;;;;;;;1.52;1.30;;;;;;;16.93;100.00;97754.31;6112166;19;20013;-74
2023/09/19 00:05:45;;;;;;;4.35;1.50;;;;;;;16.89;100.00;97743.25;6110558;19;20404;-74
2023/09/19 00:07:46;;;;;;;8.30;1.45;;;;;;;16.92;100.00;97745.16;6111687;19;20341;-74
2023/09/19 00:09:46;;;;;;;2.30;1.40;;;;;;;16.89;100.00;97742.47;6109803;19;20394;-74
2023/09/19 00:11:49;;;;;;;2.00;1.30;;;;;;;16.85;100.00;97745.34;6111661;19;20007;-74
2023/09/19 00:13:50;;;;;;;1.83;1.23;;;;;;;16.87;100.00;97747.69;6109213;19;20054;-74
2023/09/19 00:15:51;;;;;;;2.03;1.23;;;;;;;16.87;100.00;97754.06;6109222;19;20003;-74
2023/09/19 00:17:52;;;;;;;2.88;1.35;;;;;;;16.82;100.00;97752.59;6112002;19;20066;-74
2023/09/19 00:19:52;;;;;;;2.00;1.10;;;;;;;16.81;100.00;97750.25;6108594;19;20794;-74
2023/09/19 00:21:53;;;;;;;2.30;1.30;;;;;;;16.78;100.00;97751.09;6112784;19;20010;-74
2023/09/19 00:23:53;;;;;;;1.77;1.27;;;;;;;16.83;100.00;97742.97;6112097;19;20484;-74
2023/09/19 00:25:59;;;;;;;1.88;1.30;;;;;;;16.84;100.00;97738.97;6112804;19;20919;-74
2023/09/19 00:27:59;;;;;;;2.63;1.30;;;;;;;16.81;100.00;97733.47;6112253;19;20386;-74
2023/09/19 00:30:00;;;;;;;1.98;1.20;;;;;;;16.78;100.00;97746.28;6111632;19;20011;-74
2023/09/19 00:32:03;;;;;;;1.98;1.08;;;;;;;16.77;100.00;97727.97;6112445;19;20506;-74
2023/09/19 00:34:04;;;;;;;2.95;1.20;;;;;;;16.78;100.00;97737.13;6110292;19;20577;-74
2023/09/19 00:36:05;;;;;;;2.05;1.02;;;;;;;16.73;100.00;97730.06;6111736;19;20019;-74
2023/09/19 00:38:07;;;;;;;2.58;1.30;;;;;;;16.68;100.00;97735.34;6111341;19;20239;-74
2023/09/19 00:40:11;;;;;;;3.57;1.20;;;;;;;16.65;100.00;97737.03;6111464;19;20466;-74
2023/09/19 00:42:20;;;;;;;3.17;1.17;;;;;;;16.66;100.00;97748.97;6112436;19;20085;-74
2023/09/19 00:44:23;;;;;;;2.05;1.33;;;;;;;16.63;100.00;97747.03;6111405;19;26045;-74
2023/09/19 00:46:23;;;;;;;2.35;1.25;;;;;;;16.60;100.00;97748.72;6111461;19;20011;-74
2023/09/19 00:48:28;;;;;;;3.47;1.38;;;;;;;16.54;100.00;97748.44;6110435;19;20010;-74
2023/09/19 00:50:29;;;;;;;2.20;1.27;;;;;;;16.54;100.00;97756.03;6112033;19;20017;-74
2023/09/19 00:52:30;;;;;;;2.65;1.20;;;;;;;16.48;100.00;97755.00;6112935;19;20455;-74
2023/09/19 00:54:30;;;;;;;2.78;1.40;;;;;;;16.46;100.00;97754.63;6111649;19;20010;-74
2023/09/19 00:56:31;;;;;;;2.80;1.13;;;;;;;16.48;100.00;97760.59;6109390;19;20010;-74
2023/09/19 00:58:33;;;;;;;1.42;1.05;;;;;;;16.53;100.00;97757.25;6108980;19;20053;-74
2023/09/19 01:00:34;;;;;;;2.30;1.30;;;;;;;16.50;100.00;97763.72;6110742;19;20014;-74
2023/09/19 01:02:35;;;;;;;2.22;1.15;;;;;;;16.48;100.00;97766.16;6112445;19;20018;-74
2023/09/19 01:04:36;;;;;;;2.47;1.50;;;;;;;16.45;100.00;97772.59;6110449;19;20323;-74
2023/09/19 01:06:36;;;;;;;2.78;1.40;;;;;;;16.42;100.00;97773.47;6112714;19;20962;-74
2023/09/19 01:08:36;;;;;;;1.80;1.20;;;;;;;16.43;100.00;97781.41;6110962;19;20007;-74
2023/09/19 01:10:46;;;;;;;2.08;1.15;;;;;;;16.38;100.00;97775.56;6110990;19;20018;-74
2023/09/19 01:13:10;;;;;;;2.38;1.40;;;;;;;16.37;100.00;97777.56;6111495;19;20131;-73
2023/09/19 01:15:19;;;;;;;2.53;1.38;;;;;;;16.38;100.00;97779.13;6112571;19;20015;-74
2023/09/19 01:17:44;;;;;;;3.15;1.42;;;;;;;16.35;100.00;97790.38;6111843;19;20371;-74
2023/09/19 01:20:07;;;;;;;4.10;3.33;;;;;;;16.33;100.00;97790.03;6108764;19;20006;-74
2023/09/19 01:22:23;;;;;;;1.90;1.38;;;;;;;16.27;100.00;97789.75;6111104;19;20485;-74
2023/09/19 01:24:48;;;;;;;3.25;1.58;;;;;;;16.26;100.00;97796.56;6112012;19;20009;-74
2023/09/19 01:27:07;;;;;;;2.85;1.23;;;;;;;16.21;100.00;97799.84;6111378;19;20007;-74
2023/09/19 01:29:29;;;;;;;2.22;1.48;;;;;;;16.19;100.00;97802.31;6110790;19;20003;-74
2023/09/19 01:31:35;;;;;;;2.97;1.50;;;;;;;16.15;100.00;97805.19;6111489;19;20010;-74
2023/09/19 01:33:59;;;;;;;2.40;1.63;;;;;;;16.14;100.00;97809.19;6111087;19;20459;-74
2023/09/19 01:35:59;;;;;;;4.93;1.38;;;;;;;16.12;100.00;97803.22;6110082;19;20008;-74
2023/09/19 01:38:00;;;;;;;4.80;1.67;;;;;;;16.13;100.00;97804.03;6109749;19;20458;-74
2023/09/19 01:40:16;;;;;;;2.00;1.33;;;;;;;16.11;100.00;97803.66;6108358;19;20466;-74
2023/09/19 01:42:37;;;;;;;2.72;1.55;;;;;;;16.09;100.00;97820.84;6006799;19;2004655;-74
2023/09/19 01:44:49;;;;;;;2.97;1.33;;;;;;;16.02;100.00;97813.41;6111562;19;20014;-74
2023/09/19 01:46:49;;;;;;;2.25;1.60;;;;;;;15.99;100.00;97817.06;6109980;19;20009;-74
2023/09/19 01:49:06;;;;;;;3.83;1.42;;;;;;;16.00;100.00;97821.44;6108635;19;20010;-74
2023/09/19 01:51:09;;;;;;;1.63;1.38;;;;;;;15.99;100.00;97819.06;6110640;19;20010;-74
2023/09/19 01:53:33;;;;;;;1.88;1.35;;;;;;;16.01;100.00;97828.56;6111304;19;20086;-74
2023/09/19 01:55:42;;;;;;;1.88;1.25;;;;;;;16.04;100.00;97826.13;6111195;19;20010;-74
2023/09/19 01:58:01;;;;;;;2.83;1.98;;;;;;;16.01;100.00;97833.38;6107606;19;20048;-74
2023/09/19 02:00:06;;;;;;;3.55;1.70;;;;;;;15.96;100.00;97831.84;6106860;19;20070;-74
2023/09/19 02:02:08;;;;;;;3.42;1.42;;;;;;;15.97;100.00;97830.66;6110509;19;20014;-73
2023/09/19 02:04:10;;;;;;;2.00;1.23;;;;;;;15.96;100.00;97829.06;6109647;19;20014;-74
2023/09/19 02:06:15;;;;;;;2.25;1.50;;;;;;;15.96;100.00;97826.28;6109964;19;20045;-74
2023/09/19 02:08:19;;;;;;;3.92;1.50;;;;;;;15.97;100.00;97833.47;6110262;19;20481;-74
2023/09/19 02:10:20;;;;;;;4.03;1.63;;;;;;;15.94;100.00;97834.31;6108501;19;20010;-74
2023/09/19 02:12:20;;;;;;;1.52;1.40;;;;;;;15.95;100.00;97835.09;6110074;19;20013;-74
2023/09/19 02:14:22;;;;;;;2.67;1.55;;;;;;;15.99;100.00;97828.22;6108517;19;20427;-73
2023/09/19 02:16:22;;;;;;;2.50;1.80;;;;;;;16.02;100.00;97827.34;6110345;19;20013;-74
2023/09/19 02:18:23;;;;;;;3.22;1.65;;;;;;;16.01;100.00;97825.00;6109546;19;20224;-74
2023/09/19 02:20:23;;;;;;;3.35;1.55;;;;;;;16.00;100.00;97835.38;6107828;19;20022;-73
2023/09/19 02:22:24;;;;;;;3.75;1.45;;;;;;;15.99;100.00;97836.59;6109900;19;20007;-74
2023/09/19 02:24:26;;;;;;;3.65;1.77;;;;;;;16.08;100.00;97846.41;6110572;19;20007;-74
2023/09/19 02:26:27;;;;;;;2.88;1.50;;;;;;;16.04;100.00;97843.66;6108945;19;20022;-74
2023/09/19 02:28:31;;;;;;;3.47;1.50;;;;;;;16.04;100.00;97851.25;6108475;19;20406;-74
2023/09/19 02:30:32;;;;;;;3.47;1.63;;;;;;;16.08;100.00;97846.41;6108193;19;20006;-74
2023/09/19 02:32:36;;;;;;;3.75;1.90;;;;;;;16.06;100.00;97840.47;6109852;19;20549;-74
2023/09/19 02:34:38;;;;;;;3.85;1.67;;;;;;;16.07;100.00;97850.41;6108159;19;20764;-74
2023/09/19 02:36:39;;;;;;;;;;;;;;;16.09;100.00;97843.16;6110325;19;20009;-73
2023/09/19 02:38:39;;;;;;;5.25;1.90;;;;;;;16.06;100.00;97846.03;6107799;19;20240;-74
2023/09/19 02:40:40;;;;;;;2.67;1.60;;;;;;;16.09;100.00;97842.38;6107537;19;20389;-74
2023/09/19 02:42:42;;;;;;;3.25;1.67;;;;;;;16.04;100.00;97849.25;6108734;19;20006;-74
2023/09/19 02:44:43;;;;;;;2.30;1.70;;;;;;;16.00;100.00;97849.31;6109249;19;20017;-74
2023/09/19 02:46:43;;;;;;;5.28;1.63;;;;;;;16.00;100.00;97854.91;6109019;19;20471;-73
2023/09/19 02:48:43;;;;;;;1.90;1.40;;;;;;;16.00;100.00;97857.69;6107883;19;20006;-74
2023/09/19 02:50:45;;;;;;;3.83;1.52;;;;;;;16.01;100.00;97855.69;6099540;19;20016;-74
2023/09/19 02:52:49;;;;;;;4.00;1.50;;;;;;;16.06;100.00;97866.38;6108186;19;20002;-73
2023/09/19 02:54:50;;;;;;;3.05;1.63;;;;;;;16.07;100.00;97856.78;6108257;19;20066;-74
2023/09/19 02:56:50;;;;;;;2.08;1.50;;;;;;;16.05;100.00;97855.59;6107138;19;20540;-74
2023/09/19 02:58:51;;;;;;;4.95;1.40;;;;;;;15.99;100.00;97858.13;6106474;19;19999;-73
2023/09/19 03:00:51;;;;;;;3.80;1.33;;;;;;;15.97;100.00;97863.34;6107612;19;20013;-74
2023/09/19 03:02:55;;;;;;;2.38;1.73;;;;;;;15.93;100.00;97860.63;6108853;19;20063;-73
2023/09/19 03:04:56;;;;;;;2.90;1.67;;;;;;;15.92;100.00;97863.84;6106605;19;20426;-74
2023/09/19 03:07:00;;;;;;;3.13;1.60;;;;;;;15.96;100.00;97870.13;6108142;19;20011;-73
2023/09/19 03:09:00;;;;;;;1.90;1.30;;;;;;;15.94;100.00;97861.41;6106618;19;20034;-73
2023/09/19 03:11:02;;;;;;;1.52;1.20;;;;;;;15.89;100.00;97859.94;6105668;19;20006;-73
2023/09/19 03:13:02;;;;;;;2.20;1.60;;;;;;;15.93;100.00;97865.41;6108332;19;20006;-73
2023/09/19 03:15:04;;;;;;;8.63;1.50;;;;;;;15.86;100.00;97866.34;6108329;19;20474;-73
2023/09/19 03:17:04;;;;;;;1.67;1.30;;;;;;;15.93;100.00;97876.56;6107367;19;20026;-74
2023/09/19 03:19:05;;;;;;;3.65;1.33;;;;;;;15.88;100.00;97875.06;6106728;19;20278;-73
2023/09/19 03:21:05;;;;;;;3.22;1.50;;;;;;;15.84;100.00;97871.56;6107324;19;20015;-73
2023/09/19 03:23:06;;;;;;;2.35;1.38;;;;;;;15.77;100.00;97874.50;6105736;19;20003;-73
2023/09/19 03:25:11;;;;;;;3.22;1.40;;;;;;;15.67;100.00;97872.69;6106570;19;20386;-74
2023/09/19 03:27:15;;;;;;;2.67;1.30;;;;;;;15.58;100.00;97878.78;6107896;19;20359;-74
2023/09/19 03:29:17;;;;;;;1.75;1.13;;;;;;;15.56;100.00;97881.22;6106436;19;20066;-73
2023/09/19 03:31:17;;;;;;;2.05;1.35;;;;;;;15.54;100.00;97878.06;6107951;19;20041;-74
2023/09/19 03:33:18;;;;;;;2.00;1.33;;;;;;;15.47;100.00;97894.91;6108212;19;20011;-73
2023/09/19 03:35:19;;;;;;;2.63;1.30;;;;;;;15.37;100.00;97891.09;6107739;19;20004;-73
2023/09/19 03:37:19;;;;;;;1.40;1.10;;;;;;;15.34;100.00;97899.53;6107524;19;20696;-73
2023/09/19 03:39:19;;;;;;;3.05;1.50;;;;;;;15.20;100.00;97899.75;6104660;19;20022;-73
2023/09/19 03:41:20;;;;;;;3.47;1.50;;;;;;;15.15;100.00;97889.91;6107595;19;20031;-73
2023/09/19 03:43:20;;;;;;;2.10;1.50;;;;;;;15.09;100.00;97897.94;6107958;19;20024;-73
2023/09/19 03:45:21;;;;;;;2.10;1.27;;;;;;;15.01;100.00;97888.13;6107599;19;20329;-73
2023/09/19 03:47:21;;;;;;;2.00;1.15;;;;;;;15.02;100.00;97888.91;6107622;19;20437;-73
2023/09/19 03:49:22;;;;;;;3.88;1.50;;;;;;;14.99;100.00;97893.31;6104011;19;20243;-73
2023/09/19 03:51:22;;;;;;;2.03;1.38;;;;;;;15.03;100.00;97894.03;6106008;19;20033;-73
2023/09/19 03:53:22;;;;;;;1.98;1.55;;;;;;;15.05;100.00;97891.63;6103676;19;20030;-73
2023/09/19 03:55:23;;;;;;;2.00;1.40;;;;;;;15.06;100.00;97892.41;6110829;19;20007;-73
2023/09/19 03:57:23;;;;;;;3.22;1.55;;;;;;;15.08;100.00;97893.56;6109680;19;20006;-73
2023/09/19 03:59:23;;;;;;;7.75;1.73;;;;;;;15.11;100.00;97895.50;6109195;19;20019;-73
2023/09/19 04:01:24;;;;;;;4.10;1.48;;;;;;;15.13;100.00;97904.22;6108815;19;20003;-73
2023/09/19 04:03:34;;;;;;;3.20;1.45;;;;;;;15.16;100.00;97899.81;6112006;19;20014;-73
2023/09/19 04:05:34;;;;;;;1.42;1.20;;;;;;;15.14;100.00;97903.03;6111446;19;21442;-73
2023/09/19 04:07:35;;;;;;;3.08;1.48;;;;;;;15.20;100.00;97899.75;6111134;19;20027;-74
2023/09/19 04:09:35;;;;;;;1.77;1.27;;;;;;;15.26;100.00;97904.44;6107255;19;20015;-73
2023/09/19 04:11:36;;;;;;;3.55;1.50;;;;;;;15.34;100.00;97896.75;6111343;19;20002;-73
2023/09/19 04:13:36;;;;;;;2.20;1.42;;;;;;;15.33;100.00;97897.97;6110356;19;20102;-73
2023/09/19 04:15:37;;;;;;;2.80;1.30;;;;;;;15.45;100.00;97908.50;6110173;19;20001;-73
2023/09/19 04:17:37;;;;;;;2.28;1.52;;;;;;;15.46;100.00;97907.28;6111885;19;20837;-73
2023/09/19 04:19:38;;;;;;;1.98;1.20;;;;;;;15.46;100.00;97910.84;6108296;19;20540;-73
2023/09/19 04:21:38;;;;;;;2.53;1.10;;;;;;;15.45;100.00;97908.50;6110290;19;20113;-73
2023/09/19 04:23:39;;;;;;;2.40;1.48;;;;;;;15.46;100.00;97912.84;6109741;19;20007;-73
2023/09/19 04:25:40;;;;;;;1.90;1.25;;;;;;;15.47;100.00;97920.00;6110158;19;20002;-73
2023/09/19 04:27:44;;;;;;;3.05;1.30;;;;;;;15.44;100.00;97915.28;6110287;19;20014;-73
2023/09/19 04:29:44;;;;;;;1.70;1.10;;;;;;;15.46;100.00;97913.63;6108560;19;20002;-73
2023/09/19 04:31:45;;;;;;;1.00;0.90;;;;;;;15.42;100.00;97909.34;6110344;19;20010;-73
2023/09/19 04:33:46;;;;;;;3.63;1.50;;;;;;;15.39;100.00;97916.56;6110777;19;20021;-73
2023/09/19 04:35:49;;;;;;;3.53;1.20;;;;;;;15.30;100.00;97912.72;6111189;19;20498;-73
2023/09/19 04:37:50;;;;;;;2.53;1.27;;;;;;;15.24;100.00;97920.78;6109581;19;20333;-73
2023/09/19 04:39:50;;;;;;;3.20;1.23;;;;;;;15.16;100.00;97917.34;6105645;19;20279;-73
2023/09/19 04:41:51;;;;;;;2.65;1.70;;;;;;;15.09;100.00;97922.22;6110788;19;21318;-73
2023/09/19 04:43:51;;;;;;;2.13;1.20;;;;;;;15.02;100.00;97925.91;6106140;19;20728;-74
2023/09/19 04:45:55;;;;;;;3.45;1.50;;;;;;;14.98;100.00;97929.97;6108732;19;20509;-73
2023/09/19 04:47:56;;;;;;;2.13;1.40;;;;;;;14.92;100.00;97931.63;6109764;19;20003;-74
2023/09/19 04:49:58;;;;;;;1.70;1.30;;;;;;;14.85;100.00;97933.31;6107989;19;20017;-73
2023/09/19 04:51:59;;;;;;;2.97;2.60;;;;;;;14.91;100.00;97933.63;6107925;19;20119;-73
2023/09/19 04:54:00;;;;;;;2.42;1.63;;;;;;;14.89;100.00;97936.84;6110225;19;20003;-73
2023/09/19 04:56:00;;;;;;;3.15;1.45;;;;;;;14.88;100.00;97940.81;6110858;19;19994;-73
2023/09/19 04:58:00;;;;;;;1.85;1.40;;;;;;;14.87;100.00;97944.03;6108156;19;19999;-73
2023/09/19 05:00:02;;;;;;;3.65;1.50;;;;;;;14.83;100.00;97944.09;6110008;19;20333;-73
2023/09/19 05:02:02;;;;;;;2.00;1.40;;;;;;;14.84;100.00;97942.88;6108650;19;20002;-73
2023/09/19 05:04:05;;;;;;;2.53;1.20;;;;;;;14.87;100.00;97941.25;6109030;19;20664;-73
2023/09/19 05:06:05;;;;;;;;;;;;;;;14.92;100.00;97948.34;6109413;19;20020;-73
2023/09/19 05:08:05;;;;;;;3.83;1.40;;;;;;;14.88;100.00;97949.16;6110062;19;20221;-73
2023/09/19 05:10:07;;;;;;;2.33;1.17;;;;;;;14.86;100.00;97964.72;6107481;19;20367;-73
2023/09/19 05:12:07;;;;;;;2.28;1.48;;;;;;;14.86;100.00;97965.50;6109665;19;20007;-73
2023/09/19 05:14:07;;;;;;;2.45;1.30;;;;;;;14.81;100.00;97962.41;6109711;19;20070;-73
2023/09/19 05:16:09;;;;;;;2.72;1.30;;;;;;;14.80;100.00;97963.63;6110036;19;20455;-73
2023/09/19 05:18:10;;;;;;;2.75;1.20;;;;;;;14.81;100.00;97968.78;6110451;19;20238;-73
2023/09/19 05:20:14;;;;;;;2.47;1.23;;;;;;;14.76;100.00;97965.66;6107951;19;20007;-73
2023/09/19 05:22:15;;;;;;;3.78;1.35;;;;;;;14.75;100.00;97966.88;6110315;19;20003;-73
2023/09/19 05:24:16;;;;;;;1.95;1.60;;;;;;;14.74;100.00;97968.88;6108650;19;20019;-73
2023/09/19 05:26:17;;;;;;;2.30;1.10;;;;;;;14.77;100.00;97983.94;6110598;19;20509;-73
2023/09/19 05:28:18;;;;;;;2.10;0.90;;;;;;;14.78;100.00;97985.53;6111304;19;20008;-73
2023/09/19 05:30:20;;;;;;;4.57;1.50;;;;;;;14.81;100.00;97985.50;6109749;19;20577;-73
2023/09/19 05:32:20;;;;;;;3.50;0.98;;;;;;;14.90;100.00;97982.19;6111461;19;20002;-73
2023/09/19 05:34:20;;;;;;;2.35;1.17;;;;;;;14.89;100.00;97984.19;6109412;19;20023;-73
2023/09/19 05:36:21;;;;;;;2.85;1.30;;;;;;;14.89;100.00;97986.16;6109924;19;20022;-73
2023/09/19 05:38:21;;;;;;;5.65;1.58;;;;;;;14.92;100.00;97990.13;6110429;19;20018;-73
2023/09/19 05:40:21;;;;;;;2.50;1.13;;;;;;;14.96;100.00;97993.63;6107540;19;20507;-73
2023/09/19 05:42:22;;;;;;;3.10;1.35;;;;;;;15.01;100.00;97984.81;6109232;19;20380;-73
2023/09/19 05:44:22;;;;;;;2.60;1.50;;;;;;;15.06;100.00;97989.91;6110158;19;20010;-73
2023/09/19 05:46:22;;;;;;;2.42;1.63;;;;;;;15.10;100.00;97985.88;6109243;19;20003;-73
2023/09/19 05:48:23;;;;;;;5.28;1.45;;;;;;;15.12;100.00;97991.81;6108754;19;19999;-73
2023/09/19 05:50:24;;;;;;;1.73;1.10;;;;;;;15.17;100.00;97987.78;6106027;19;20677;-73
2023/09/19 05:52:25;;;;;;;2.22;1.15;;;;;;;15.20;100.00;97995.28;6109429;19;20006;-73
2023/09/19 05:54:25;;;;;;;4.35;1.38;;;;;;;15.22;100.00;97992.84;6109704;19;20006;-73
2023/09/19 05:56:27;;;;;;;3.90;1.50;;;;;;;15.24;100.00;97998.81;6108446;19;20014;-73
2023/09/19 05:58:27;;;;;;;3.75;1.55;;;;;;;15.26;100.00;97990.81;6108861;19;20446;-73
2023/09/19 06:00:29;;;;;;;2.65;1.05;;;;;;;15.25;100.00;98003.19;6109559;19;20010;-73
2023/09/19 06:02:29;;;;;;;2.13;1.30;;;;;;;15.27;100.00;97994.41;6109499;19;20006;-73
2023/09/19 06:04:30;;;;;;;2.17;1.30;;;;;;;15.29;100.00;98006.69;6109931;19;20013;-73
2023/09/19 06:06:30;;;;;;;3.78;1.02;;;;;;;15.29;100.00;97989.97;6110148;19;20010;-73
2023/09/19 06:08:31;;;;;;;4.38;1.08;;;;;;;15.33;100.00;97984.34;6109515;19;20307;-73
2023/09/19 06:10:32;;;;;;;2.10;1.13;;;;;;;15.32;100.00;97989.16;6108644;19;20006;-73
2023/09/19 06:12:35;;;;;;;3.03;1.15;;;;;;;15.34;100.00;97992.28;6105536;19;20085;-73
2023/09/19 06:14:35;;;;;;;3.30;1.40;;;;;;;15.35;100.00;97991.06;6110129;19;20466;-73
2023/09/19 06:16:38;;;;;;;2.13;1.30;;;;;;;15.39;100.00;97993.78;6107245;19;20017;-73
2023/09/19 06:18:38;;;;;;;;;;;;;;;15.40;100.00;97992.63;6108810;19;20134;-73
2023/09/19 06:20:44;;;;;;;3.30;1.27;;;;;;;15.40;100.00;97993.41;6108681;19;20359;-73
2023/09/19 06:22:45;;;;;;;3.30;1.27;;;;;;;15.45;100.00;97986.53;6107020;19;19995;-73
2023/09/19 06:24:46;;;;;;;2.50;1.17;;;;;;;15.50;100.00;97985.28;6108301;19;20002;-73
2023/09/19 06:26:47;;;;;;;3.50;1.10;;;;;;;15.49;100.00;97987.28;6107015;19;20008;-73
2023/09/19 06:28:48;;;;;;;1.63;1.20;;;;;;;15.52;100.00;97994.78;6108086;19;20011;-73
2023/09/19 06:30:48;;;;;;;6.18;1.20;;;;;;;15.55;100.00;98015.47;6106015;19;20006;-73
2023/09/19 06:32:49;;;;;;;2.35;1.30;;;;;;;15.55;100.00;98005.09;6106588;19;20358;-73
2023/09/19 06:34:54;;;;;;;3.25;1.05;;;;;;;15.57;100.00;98004.69;6109196;19;20473;-73
2023/09/19 06:36:55;;;;;;;4.78;1.30;;;;;;;15.64;100.00;98004.63;6106572;19;20010;-73
2023/09/19 06:38:55;;;;;;;2.65;0.88;;;;;;;15.66;100.00;98010.56;6105633;19;20505;-73
2023/09/19 06:40:57;;;;;;;3.67;1.30;;;;;;;15.66;100.00;98002.97;6107942;19;20070;-73
2023/09/19 06:42:57;;;;;;;3.30;1.17;;;;;;;15.75;100.00;98012.81;6107888;19;20023;-73
2023/09/19 06:44:57;;;;;;;3.03;1.02;;;;;;;15.81;100.00;98017.47;6108005;19;20438;-73
2023/09/19 06:46:58;;;;;;;2.83;1.10;;;;;;;15.83;100.00;98019.84;6108431;19;20036;-73
2023/09/19 06:48:58;;;;;;;2.22;0.93;;;;;;;15.87;100.00;98023.34;6106927;19;20003;-73
2023/09/19 06:51:04;;;;;;;2.25;1.00;;;;;;;15.85;100.00;98020.97;6107302;19;20458;-73
2023/09/19 06:53:05;;;;;;;2.28;0.90;;;;;;;15.88;100.00;98028.47;6108701;19;20010;-73
2023/09/19 06:55:06;;;;;;;1.48;0.98;;;;;;;15.87;100.00;98028.91;6107898;19;20367;-73
2023/09/19 06:57:09;;;;;;;4.03;1.10;;;;;;;15.94;100.00;98034.38;6107406;19;20481;-73
2023/09/19 06:59:10;;;;;;;2.60;1.02;;;;;;;15.95;100.00;98041.53;6106807;19;20470;-73
2023/09/19 07:01:10;;;;;;;2.80;1.00;;;;;;;16.00;100.00;98036.25;6106348;19;20006;-73
2023/09/19 07:03:13;;;;;;;2.75;1.30;;;;;;;16.01;100.00;98043.41;6108130;19;19999;-73
2023/09/19 07:05:13;;;;;;;1.75;1.10;;;;;;;16.00;100.00;98044.63;6104348;19;20577;-73
2023/09/19 07:07:16;;;;;;;1.80;1.10;;;;;;;16.03;100.00;98056.94;6105546;19;20026;-73
2023/09/19 07:09:18;;;;;;;2.83;1.00;;;;;;;16.05;100.00;98060.09;6107006;19;21013;-73
2023/09/19 07:11:19;;;;;;;3.20;1.38;;;;;;;16.11;100.00;98063.97;6105731;19;20015;-73
2023/09/19 07:13:19;;;;;;;2.78;1.15;;;;;;;16.08;100.00;98064.06;6107820;19;20014;-73
2023/09/19 07:15:21;;;;;;;1.67;0.82;;;;;;;16.11;100.00;98071.56;6107649;19;20347;-73
2023/09/19 07:17:23;;;;;;;2.92;0.93;;;;;;;16.16;100.00;98071.09;6106494;19;19997;-73
2023/09/19 07:19:24;;;;;;;;;;;;;;;16.22;100.00;98075.75;6106329;19;20017;-73
2023/09/19 07:21:24;;;;;;;2.38;1.23;;;;;;;16.23;100.00;98082.91;6106493;19;20250;-73
2023/09/19 07:23:26;;;;;;;5.85;3.17;;;;;;;16.31;100.00;98085.59;6107841;19;20458;-73
2023/09/19 07:25:27;;;;;;;13.70;7.07;;;;;;;16.33;100.00;98083.16;6107835;19;20006;-73
2023/09/19 07:27:28;;;;;;;3.50;2.05;;;;;;;16.37;100.00;98097.81;6107016;19;20006;-73
2023/09/19 07:29:28;;;;;;;8.02;3.30;;;;;;;16.41;100.00;98101.34;6109518;19;20375;-73
2023/09/19 07:31:29;;;;;;;3.05;1.48;;;;;;;16.43;100.00;98112.88;6111867;19;20591;-73
2023/09/19 07:33:29;;;;;;;5.30;1.33;;;;;;;16.38;100.00;98116.16;6111735;19;20020;-73
2023/09/19 07:35:30;;;;;;;2.10;1.60;;;;;;;16.34;100.00;98118.22;6112226;19;20556;-73
2023/09/19 07:37:33;;;;;;;1.75;1.08;;;;;;;16.34;100.00;98127.38;6113516;19;20007;-73
2023/09/19 07:39:33;;;;;;;2.03;1.20;;;;;;;16.31;100.00;98128.25;6111437;19;20272;-73
2023/09/19 07:41:34;;;;;;;1.80;1.20;;;;;;;16.27;100.00;98125.50;6111995;19;19999;-73
2023/09/19 07:43:35;;;;;;;2.72;1.50;;;;;;;16.24;100.00;98131.94;6113712;19;20267;-73
2023/09/19 07:45:36;;;;;;;2.78;1.25;;;;;;;16.28;100.00;98132.66;6111686;19;20009;-73
2023/09/19 07:47:36;;;;;;;3.03;1.30;;;;;;;16.28;100.00;98135.44;6113522;19;20462;-73
2023/09/19 07:49:37;;;;;;;2.83;0.90;;;;;;;16.34;100.00;98132.19;6103204;19;20003;-74
2023/09/19 07:51:38;;;;;;;3.88;1.20;;;;;;;16.37;100.00;98148.88;6109197;19;19999;-73
2023/09/19 07:53:38;;;;;;;4.47;1.10;;;;;;;16.41;100.00;98146.03;6112859;19;20026;-73
2023/09/19 07:55:40;;;;;;;1.77;1.08;;;;;;;16.48;100.00;98157.06;6111434;19;20007;-73
2023/09/19 07:57:42;;;;;;;4.38;1.40;;;;;;;16.41;100.00;98146.03;6110555;19;20003;-73
2023/09/19 07:59:43;;;;;;;1.45;0.90;;;;;;;16.49;100.00;98150.28;6108262;19;20006;-73
2023/09/19 08:01:44;;;;;;;3.30;1.42;;;;;;;16.53;100.00;98142.59;6110726;19;20006;-73
2023/09/19 08:03:45;;;;;;;2.05;1.13;;;;;;;16.48;100.00;98145.91;6111616;19;20010;-73
2023/09/19 08:05:45;;;;;;;3.35;1.30;;;;;;;16.57;100.00;98154.53;6110505;19;20014;-73
2023/09/19 08:07:48;;;;;;;3.35;1.08;;;;;;;16.55;100.00;98156.97;6112387;19;20007;-73
2023/09/19 08:09:49;;;;;;;3.83;1.60;;;;;;;16.54;100.00;98158.94;6106196;19;20463;-73
2023/09/19 08:11:50;;;;;;;1.88;0.95;;;;;;;16.56;100.00;98147.38;6112255;19;20221;-73
2023/09/19 08:13:51;;;;;;;3.03;1.25;;;;;;;16.53;100.00;98154.56;6110596;19;20005;-73
2023/09/19 08:15:55;;;;;;;2.45;1.85;;;;;;;16.55;100.00;98162.53;6110515;19;19999;-73
2023/09/19 08:17:55;;;;;;;4.72;1.10;;;;;;;16.41;100.00;98162.78;6107798;19;20316;-73
2023/09/19 08:19:55;;;;;;;1.75;1.10;;;;;;;16.50;100.00;98160.22;6106198;19;20010;-73
2023/09/19 08:21:58;;;;;;;1.80;1.05;;;;;;;16.48;100.00;98165.47;6111150;19;20082;-73
2023/09/19 08:23:58;;;;;;;;;;;;;;;16.49;100.00;98167.03;6111733;19;20006;-73
2023/09/19 08:26:03;;;;;;;4.32;1.30;;;;;;;16.54;100.00;98177.69;6111432;19;19915;-73
2023/09/19 08:28:08;;;;;;;3.42;1.20;;;;;;;16.61;100.00;98182.38;6107251;19;20452;-73
2023/09/19 08:30:10;;;;;;;1.60;0.93;;;;;;;16.65;100.00;98163.56;6108803;19;20010;-73
2023/09/19 08:32:11;;;;;;;2.60;1.10;;;;;;;16.74;100.00;98175.00;6110443;19;20074;-73
2023/09/19 08:34:11;;;;;;;2.40;1.10;;;;;;;16.85;100.00;98162.41;6108398;19;20040;-73
2023/09/19 08:36:14;;;;;;;3.17;1.20;;;;;;;16.93;99.53;98160.25;6105850;19;20002;-73
2023/09/19 08:38:14;;;;;;;2.97;0.90;;;;;;;17.03;99.70;98150.88;6108304;19;20017;-73
2023/09/19 08:40:15;;;;;;;2.22;0.80;;;;;;;17.09;98.17;98165.16;6106144;19;20006;-73
2023/09/19 08:42:16;;;;;;;1.98;0.98;;;;;;;17.15;93.96;98171.84;6102734;19;20007;-73
2023/09/19 08:44:17;;;;;;;2.87;1.10;;;;;;;17.19;96.11;98158.56;6105809;19;20094;-73
2023/09/19 08:46:19;;;;;;;5.55;1.23;;;;;;;17.18;94.79;98159.00;6111804;19;20337;-73
2023/09/19 08:48:27;;;;;;;1.77;0.88;;;;;;;17.28;97.07;98169.16;6107569;19;20007;-72
2023/09/19 08:50:29;;;;;;;2.25;1.00;;;;;;;17.37;96.47;98166.56;6100118;19;20016;-73
2023/09/19 08:52:40;;;;;;;2.20;1.10;;;;;;;17.42;96.90;98168.88;6090193;19;20039;-73
2023/09/19 08:54:41;;;;;;;3.10;1.10;;;;;;;17.48;96.64;98180.34;6090565;19;20007;-73
2023/09/19 08:56:43;;;;;;;3.95;1.10;;;;;;;17.49;94.88;98185.50;6093565;19;20029;-72
2023/09/19 08:58:48;;;;;;;2.67;1.00;;;;;;;17.41;95.16;98181.28;6096107;19;20007;-73
2023/09/19 09:00:50;;;;;;;2.50;1.10;;;;;;;17.34;95.40;98182.22;6097377;19;20273;-72
2023/09/19 09:02:51;;;;;;;2.35;1.00;;;;;;;17.28;96.46;98186.72;6096962;19;20078;-73
2023/09/19 09:04:54;;;;;;;3.63;1.30;;;;;;;17.32;96.55;98187.47;6094092;19;20036;-72
2023/09/19 09:06:55;;;;;;;2.53;0.90;;;;;;;17.34;98.38;98181.44;6093264;19;20018;-73
2023/09/19 09:08:56;;;;;;;1.27;0.98;;;;;;;17.44;97.78;98176.84;6094559;19;20091;-73
2023/09/19 09:10:57;;;;;;;3.90;1.20;;;;;;;17.50;95.90;98189.88;6095054;19;20011;-73
2023/09/19 09:12:58;;;;;;;2.63;0.95;;;;;;;17.61;95.10;98182.03;6095141;19;20006;-73
2023/09/19 09:14:58;;;;;;;3.35;1.20;;;;;;;17.60;95.17;98180.47;6095802;19;20021;-73
2023/09/19 09:16:59;;;;;;;4.47;1.23;;;;;;;17.63;94.39;98181.63;6094040;19;19999;-73
2023/09/19 09:19:00;;;;;;;1.90;1.08;;;;;;;17.68;94.91;98192.31;6092288;19;20328;-73
2023/09/19 09:21:00;;;;;;;3.53;1.00;;;;;;;17.68;91.55;98184.69;6094995;19;20002;-73
2023/09/19 09:23:03;;;;;;;2.83;1.23;;;;;;;17.67;93.51;98187.94;6094574;19;20011;-73
2023/09/19 09:25:04;;;;;;;1.33;0.90;;;;;;;17.66;94.09;98195.53;6094103;19;20086;-73
2023/09/19 09:27:10;;;;;;;2.22;1.15;;;;;;;17.58;95.25;98187.72;6094282;19;20070;-73
2023/09/19 09:29:11;;;;;;;6.13;1.40;;;;;;;17.61;95.75;98189.66;6093823;19;19998;-73
2023/09/19 09:31:24;;;;;;;3.10;1.13;;;;;;;17.47;93.93;98185.16;6095394;19;20455;-73